Terminal Aerodrome Forecast
Issued by NWS Mt. Holly, NJ

Home | Current Version | Previous Version | Text Only | Print | Product List | Glossary On
Versions: 1 2 3 4 5 6 7 8 9 10 11 12 13 14 15 16 17 18 19
000
FTUS41 KPHI 302300
TAFTTN
TAF
KTTN 302333Z 3100/3124 32014G26KT P6SM SCT035 BKN050
     FM310300 32014G28KT P6SM SKC
     FM311700 32012G24KT P6SM SCT050
     FM312100 30010KT P6SM SCT050=

USA.gov is the U.S. government's official web portal to all federal, state and local government web resources and services.